createdAt,value
2019-03-24T00:04:39.224Z,101644.56
2019-03-24T00:09:41.678Z,101650.02
2019-03-24T00:14:44.085Z,101642.86
2019-03-24T00:19:46.436Z,101634.34
2019-03-24T00:24:48.847Z,101631.05
2019-03-24T00:29:55.165Z,101629.96
2019-03-24T00:34:57.557Z,101618.27
2019-03-24T00:40:00.006Z,101618.89
2019-03-24T00:45:03.328Z,101618.88
2019-03-24T00:50:06.318Z,101615.48
2019-03-24T00:55:09.004Z,101616.11
2019-03-24T01:00:12.553Z,101612.80
2019-03-24T01:05:15.009Z,101612.94
2019-03-24T01:10:17.397Z,101606.48
2019-03-24T01:15:19.784Z,101591.28
2019-03-24T01:20:22.343Z,101592.97
2019-03-24T01:25:24.700Z,101591.98
2019-03-24T01:30:27.095Z,101592.11
2019-03-24T01:35:29.470Z,101600.88
2019-03-24T01:40:32.097Z,101598.33
2019-03-24T01:45:34.558Z,101595.75
2019-03-24T01:50:37.002Z,101598.42
2019-03-24T01:55:39.607Z,101592.23
2019-03-24T02:00:42.210Z,101587.23
2019-03-24T02:05:44.668Z,101587.36
2019-03-24T02:16:10.663Z,101579.90
2019-03-24T02:21:13.009Z,101574.80
2019-03-24T02:26:15.397Z,101566.88
2019-03-24T02:31:17.768Z,101571.23
2019-03-24T02:36:20.319Z,101580.80
2019-03-24T02:41:22.679Z,101576.92
2019-03-24T02:46:25.414Z,101573.34
2019-03-24T02:51:27.810Z,101565.68
2019-03-24T02:56:30.333Z,101564.83
2019-03-24T03:01:32.706Z,101567.12
2019-03-24T03:06:35.078Z,101562.72
2019-03-24T03:11:37.438Z,101571.42
2019-03-24T03:16:39.806Z,101564.64
2019-03-24T03:21:42.181Z,101560.59
2019-03-24T03:26:44.541Z,101567.05
2019-03-24T03:31:46.909Z,101563.09
2019-03-24T03:36:49.284Z,101565.46
2019-03-24T03:41:51.764Z,101560.22
2019-03-24T03:46:54.312Z,101555.31
2019-03-24T03:51:56.773Z,101546.50
2019-03-24T03:56:59.139Z,101549.92
2019-03-24T04:02:01.551Z,101551.61
2019-03-24T04:07:03.947Z,101549.33
2019-03-24T04:12:06.424Z,101549.72
2019-03-24T04:17:08.896Z,101546.06
2019-03-24T04:22:11.253Z,101550.28
2019-03-24T04:27:13.671Z,101547.03
2019-03-24T04:32:17.033Z,101545.08
2019-03-24T04:37:19.395Z,101534.03
2019-03-24T04:42:22.149Z,101538.77
2019-03-24T04:47:24.521Z,101533.83
2019-03-24T04:52:26.891Z,101530.40
2019-03-24T04:57:29.687Z,101531.69
2019-03-24T05:02:32.204Z,101529.02
2019-03-24T05:07:35.254Z,101528.78
2019-03-24T05:12:37.650Z,101524.16
2019-03-24T05:17:41.207Z,101524.52
2019-03-24T05:22:43.594Z,101520.77
2019-03-24T05:27:46.007Z,101523.72
2019-03-24T05:32:48.359Z,101526.34
2019-03-24T05:37:50.725Z,101525.58
2019-03-24T05:42:53.147Z,101518.06
2019-03-24T05:47:55.699Z,101527.78
2019-03-24T05:52:58.868Z,101524.95
2019-03-24T05:58:01.776Z,101518.14
2019-03-24T06:03:04.139Z,101512.38
2019-03-24T06:08:06.500Z,101521.67
2019-03-24T06:13:08.890Z,101517.82
2019-03-24T06:18:11.548Z,101524.13
2019-03-24T06:23:13.915Z,101525.34
2019-03-24T06:28:16.349Z,101522.88
2019-03-24T06:33:18.720Z,101528.44
2019-03-24T06:38:27.060Z,101525.98
2019-03-24T06:43:29.461Z,101529.85
2019-03-24T06:48:31.804Z,101516.13
2019-03-24T06:53:34.164Z,101512.41
2019-03-24T06:58:36.880Z,101504.77
2019-03-24T07:03:39.240Z,101504.63
2019-03-24T07:08:41.594Z,101512.41
2019-03-24T07:13:43.967Z,101510.34
2019-03-24T07:18:46.346Z,101501.43
2019-03-24T07:23:48.795Z,101505.61
2019-03-24T07:28:51.383Z,101495.58
2019-03-24T07:33:53.864Z,101498.04
2019-03-24T07:38:56.299Z,101500.22
2019-03-24T07:43:58.780Z,101497.49
2019-03-24T07:49:01.251Z,101490.47
2019-03-24T07:54:03.810Z,101490.34
2019-03-24T07:59:06.324Z,101481.84
2019-03-24T08:04:08.675Z,101482.69
2019-03-24T08:09:11.125Z,101472.02
2019-03-24T08:14:13.991Z,101467.84
2019-03-24T08:19:16.354Z,101459.23
2019-03-24T08:24:18.702Z,101454.88
2019-03-24T08:29:24.453Z,101452.08
2019-03-24T08:34:26.795Z,101452.77
2019-03-24T08:39:29.183Z,101451.42
2019-03-24T08:44:31.914Z,101451.98
2019-03-24T08:49:34.264Z,101445.98
2019-03-24T08:54:36.620Z,101440.55
2019-03-24T08:59:39.000Z,101432.09
2019-03-24T09:04:41.378Z,101431.51
2019-03-24T09:09:43.900Z,101426.47
2019-03-24T09:14:46.283Z,101425.34
2019-03-24T09:19:48.648Z,101422.31
2019-03-24T09:24:51.017Z,101418.30
2019-03-24T09:29:53.407Z,101420.14
2019-03-24T09:34:55.857Z,101414.27
2019-03-24T09:39:58.295Z,101408.98
2019-03-24T09:45:00.722Z,101402.75
2019-03-24T09:50:04.067Z,101398.95
2019-03-24T09:55:06.568Z,101378.12
2019-03-24T10:00:09.216Z,101373.64
2019-03-24T10:05:12.240Z,101362.74
2019-03-24T10:10:14.795Z,101356.06
2019-03-24T10:15:17.187Z,101345.00
2019-03-24T10:20:19.543Z,101334.44
2019-03-24T10:25:21.915Z,101323.90
2019-03-24T10:30:24.914Z,101316.93
2019-03-24T10:35:27.268Z,101305.76
2019-03-24T10:40:29.661Z,101300.42
2019-03-24T10:45:32.092Z,101299.19
2019-03-24T10:50:34.444Z,101304.20
2019-03-24T10:55:36.830Z,101297.89
2019-03-24T11:00:44.316Z,101305.04
2019-03-24T11:05:46.686Z,101311.06
2019-03-24T11:10:49.380Z,101310.54
2019-03-24T11:15:51.748Z,101307.76
2019-03-24T11:20:54.149Z,101312.88
2019-03-24T11:25:56.620Z,101301.95
2019-03-24T11:30:59.012Z,101295.67
2019-03-24T11:36:01.364Z,101286.18
2019-03-24T11:41:03.977Z,101280.20
2019-03-24T11:46:06.364Z,101264.09
2019-03-24T11:51:08.724Z,101258.00
2019-03-24T11:56:11.138Z,101251.83
2019-03-24T12:01:13.588Z,101249.70
2019-03-24T12:06:15.960Z,101238.27
2019-03-24T12:11:19.452Z,101236.00
2019-03-24T12:16:22.118Z,101237.70
2019-03-24T12:21:24.475Z,101231.48
2019-03-24T12:26:26.863Z,101220.57
2019-03-24T12:31:32.200Z,101215.22
2019-03-24T12:36:34.669Z,101206.48
2019-03-24T12:41:37.087Z,101200.31
2019-03-24T12:46:39.518Z,101204.86
2019-03-24T12:51:43.425Z,101207.06
2019-03-24T12:56:45.813Z,101199.61
2019-03-24T13:01:48.257Z,101189.55
2019-03-24T13:06:50.623Z,101178.92
2019-03-24T13:11:55.723Z,101172.55
2019-03-24T13:16:58.181Z,101158.87
2019-03-24T13:22:03.685Z,101158.87
2019-03-24T13:27:06.167Z,101151.67
2019-03-24T13:32:11.500Z,101152.25
2019-03-24T13:37:13.884Z,101131.31
2019-03-24T13:42:16.304Z,101113.95
2019-03-24T13:47:21.687Z,101114.38
2019-03-24T13:52:24.039Z,101105.28
2019-03-24T13:57:29.397Z,101104.60
2019-03-24T14:02:34.443Z,101095.12
2019-03-24T14:07:36.795Z,101092.36
2019-03-24T14:12:39.235Z,101077.64
2019-03-24T14:17:42.702Z,101077.67
2019-03-24T14:22:48.367Z,101062.46
2019-03-24T14:27:50.876Z,101051.26
2019-03-24T14:32:56.298Z,101045.27
2019-03-24T14:38:01.444Z,101032.81
2019-03-24T14:43:04.280Z,101031.03
2019-03-24T14:48:06.699Z,101039.03
2019-03-24T14:53:09.064Z,101031.47
2019-03-24T14:58:12.856Z,101035.52
2019-03-24T15:03:15.338Z,101035.61
2019-03-24T15:08:17.731Z,101019.20
2019-03-24T15:13:20.173Z,101012.55
2019-03-24T15:18:22.659Z,101020.64
2019-03-24T15:23:25.113Z,101013.39
2019-03-24T15:28:30.477Z,101021.23
2019-03-24T15:33:32.907Z,101023.91
2019-03-24T15:38:38.180Z,101012.18
2019-03-24T15:43:41.227Z,101010.08
2019-03-24T15:48:50.214Z,101005.94
2019-03-24T15:53:52.616Z,101000.48
2019-03-24T15:58:55.091Z,100989.14
2019-03-24T16:04:00.332Z,100986.54
2019-03-24T16:09:05.848Z,100982.05
2019-03-24T16:14:08.229Z,100986.99
2019-03-24T16:19:10.728Z,100990.81
2019-03-24T16:24:13.778Z,100994.31
2019-03-24T16:29:16.462Z,100987.72
2019-03-24T16:34:18.897Z,100978.02
2019-03-24T16:39:21.274Z,100975.05
2019-03-24T16:44:23.679Z,100966.41
2019-03-24T16:49:26.047Z,100960.08
2019-03-24T16:54:28.396Z,100952.22
2019-03-24T16:59:30.941Z,100959.83
2019-03-24T17:04:33.498Z,100955.39
2019-03-24T17:09:35.831Z,100949.14
2019-03-24T17:14:38.432Z,100948.70
2019-03-24T17:19:40.823Z,100942.17
2019-03-24T17:24:43.188Z,100938.49
2019-03-24T17:29:45.743Z,100937.44
2019-03-24T17:34:48.479Z,100940.04
2019-03-24T17:39:51.004Z,100928.74
2019-03-24T17:44:53.498Z,100931.20
2019-03-24T17:49:55.882Z,100932.72
2019-03-24T17:54:58.297Z,100931.39
2019-03-24T18:00:00.747Z,100940.06
2019-03-24T18:05:04.829Z,100944.59
2019-03-24T18:10:08.540Z,100941.69
2019-03-24T18:15:11.531Z,100941.22
2019-03-24T18:20:19.547Z,100939.83
2019-03-24T18:25:21.935Z,100946.36
2019-03-24T18:30:26.549Z,100951.14
2019-03-24T18:35:29.115Z,100937.83
2019-03-24T18:40:31.594Z,100936.71
2019-03-24T18:45:33.992Z,100935.38
2019-03-24T18:50:37.479Z,100932.98
2019-03-24T18:55:42.777Z,100930.50
2019-03-24T19:00:45.351Z,100932.19
2019-03-24T19:05:48.940Z,100941.06
2019-03-24T19:10:51.518Z,100934.72
2019-03-24T19:15:54.348Z,100923.98
2019-03-24T19:20:56.724Z,100931.20
2019-03-24T19:25:59.097Z,100927.88
2019-03-24T19:31:02.009Z,100928.25
2019-03-24T19:36:04.580Z,100918.36
2019-03-24T19:41:06.937Z,100920.52
2019-03-24T19:46:09.595Z,100913.01
2019-03-24T19:51:11.984Z,100909.42
2019-03-24T19:56:15.643Z,100900.13
2019-03-24T20:01:19.432Z,100893.16
2019-03-24T20:06:21.912Z,100888.08
2019-03-24T20:11:24.292Z,100883.05
2019-03-24T20:16:26.731Z,100870.95
2019-03-24T20:21:29.228Z,100875.38
2019-03-24T20:26:34.715Z,100869.32
2019-03-24T20:31:37.243Z,100870.63
2019-03-24T20:36:39.603Z,100863.81
2019-03-24T20:41:43.069Z,100866.47
2019-03-24T20:46:45.885Z,100862.47
2019-03-24T20:51:48.264Z,100858.56
2019-03-24T20:56:50.616Z,100854.02
2019-03-24T21:01:56.243Z,100850.38
2019-03-24T21:06:58.722Z,100839.05
2019-03-24T21:12:01.284Z,100835.53
2019-03-24T21:17:06.752Z,100829.80
2019-03-24T21:22:09.211Z,100828.71
2019-03-24T21:27:14.868Z,100829.16
2019-03-24T21:32:17.275Z,100828.86
2019-03-24T21:37:19.655Z,100817.85
2019-03-24T21:42:22.072Z,100811.20
2019-03-24T21:47:24.499Z,100814.25
2019-03-24T21:52:26.856Z,100816.08
2019-03-24T21:57:29.222Z,100812.36
2019-03-24T22:02:31.607Z,100814.05
2019-03-24T22:07:33.959Z,100808.12
2019-03-24T22:12:36.376Z,100814.19
2019-03-24T22:17:38.843Z,100815.30
2019-03-24T22:22:41.237Z,100808.39
2019-03-24T22:27:43.603Z,100804.39
2019-03-24T22:32:46.271Z,100800.86
2019-03-24T22:37:48.683Z,100789.59
2019-03-24T22:42:51.093Z,100778.22
2019-03-24T22:47:53.487Z,100771.47
2019-03-24T22:52:57.068Z,100772.06
2019-03-24T22:57:59.449Z,100771.92
2019-03-24T23:03:01.842Z,100767.94
2019-03-24T23:08:04.216Z,100757.91
2019-03-24T23:13:06.576Z,100747.52
2019-03-24T23:18:09.935Z,100750.14
2019-03-24T23:23:12.452Z,100739.13
2019-03-24T23:28:15.335Z,100724.38
2019-03-24T23:33:18.611Z,100723.55
2019-03-24T23:38:20.989Z,100711.30
2019-03-24T23:43:23.396Z,100706.94
2019-03-24T23:48:25.791Z,100696.54
2019-03-24T23:53:28.364Z,100690.94
2019-03-24T23:58:40.243Z,100674.44
